sensor_id;sensor_type;location;lat;lon;timestamp;temperature;humidity
11107;DHT22;5607;48.302;14.294;2023-02-21T00:02:47;8.90;99.90
11107;DHT22;5607;48.302;14.294;2023-02-21T00:05:52;8.80;99.90
11107;DHT22;5607;48.302;14.294;2023-02-21T00:08:57;8.70;99.90
11107;DHT22;5607;48.302;14.294;2023-02-21T00:12:02;8.70;99.90
11107;DHT22;5607;48.302;14.294;2023-02-21T00:15:07;8.70;99.90
11107;DHT22;5607;48.302;14.294;2023-02-21T00:21:56;8.70;99.90
11107;DHT22;5607;48.302;14.294;2023-02-21T00:25:02;8.70;99.90
11107;DHT22;5607;48.302;14.294;2023-02-21T00:28:08;8.70;99.90
11107;DHT22;5607;48.302;14.294;2023-02-21T00:31:16;8.70;99.90
11107;DHT22;5607;48.302;14.294;2023-02-21T00:34:22;8.70;99.90
11107;DHT22;5607;48.302;14.294;2023-02-21T00:37:28;8.70;99.90
11107;DHT22;5607;48.302;14.294;2023-02-21T00:40:33;8.70;99.90
11107;DHT22;5607;48.302;14.294;2023-02-21T00:43:38;8.70;99.90
11107;DHT22;5607;48.302;14.294;2023-02-21T00:46:43;8.80;99.90
11107;DHT22;5607;48.302;14.294;2023-02-21T00:49:48;8.70;99.90
11107;DHT22;5607;48.302;14.294;2023-02-21T00:52:53;8.70;99.90
11107;DHT22;5607;48.302;14.294;2023-02-21T00:55:58;8.70;99.90
11107;DHT22;5607;48.302;14.294;2023-02-21T00:59:03;8.70;99.90
11107;DHT22;5607;48.302;14.294;2023-02-21T01:02:08;8.60;99.90
11107;DHT22;5607;48.302;14.294;2023-02-21T01:05:13;8.60;99.90
11107;DHT22;5607;48.302;14.294;2023-02-21T01:08:18;8.60;99.90
11107;DHT22;5607;48.302;14.294;2023-02-21T01:11:24;8.70;99.90
11107;DHT22;5607;48.302;14.294;2023-02-21T01:14:29;8.70;99.90
11107;DHT22;5607;48.302;14.294;2023-02-21T01:17:34;8.70;99.90
11107;DHT22;5607;48.302;14.294;2023-02-21T01:20:39;8.70;99.90
11107;DHT22;5607;48.302;14.294;2023-02-21T01:23:44;8.60;99.90
11107;DHT22;5607;48.302;14.294;2023-02-21T01:26:49;8.60;99.90
11107;DHT22;5607;48.302;14.294;2023-02-21T01:29:54;8.60;99.90
11107;DHT22;5607;48.302;14.294;2023-02-21T01:32:58;8.60;99.90
11107;DHT22;5607;48.302;14.294;2023-02-21T01:36:04;8.60;99.90
11107;DHT22;5607;48.302;14.294;2023-02-21T01:39:10;8.50;99.90
11107;DHT22;5607;48.302;14.294;2023-02-21T01:42:16;8.50;99.90
11107;DHT22;5607;48.302;14.294;2023-02-21T01:48:26;8.40;99.90
11107;DHT22;5607;48.302;14.294;2023-02-21T01:51:35;8.40;99.90
11107;DHT22;5607;48.302;14.294;2023-02-21T01:54:45;8.30;99.90
11107;DHT22;5607;48.302;14.294;2023-02-21T01:57:54;8.30;99.90
11107;DHT22;5607;48.302;14.294;2023-02-21T02:01:00;8.30;99.90
11107;DHT22;5607;48.302;14.294;2023-02-21T02:04:05;8.30;99.90
11107;DHT22;5607;48.302;14.294;2023-02-21T02:07:10;8.30;99.90
11107;DHT22;5607;48.302;14.294;2023-02-21T02:10:15;8.30;99.90
11107;DHT22;5607;48.302;14.294;2023-02-21T02:16:46;8.30;99.90
11107;DHT22;5607;48.302;14.294;2023-02-21T02:19:54;8.40;99.90
11107;DHT22;5607;48.302;14.294;2023-02-21T02:32:34;8.40;99.90
11107;DHT22;5607;48.302;14.294;2023-02-21T02:39:14;8.40;99.90
11107;DHT22;5607;48.302;14.294;2023-02-21T02:45:32;8.50;99.90
11107;DHT22;5607;48.302;14.294;2023-02-21T02:51:46;8.40;99.90
11107;DHT22;5607;48.302;14.294;2023-02-21T02:54:33;8.40;99.90
11107;DHT22;5607;48.302;14.294;2023-02-21T02:57:19;8.50;99.90
11107;DHT22;5607;48.302;14.294;2023-02-21T03:00:06;8.40;99.90
11107;DHT22;5607;48.302;14.294;2023-02-21T03:15:24;8.40;99.90
11107;DHT22;5607;48.302;14.294;2023-02-21T03:21:17;8.40;99.90
11107;DHT22;5607;48.302;14.294;2023-02-21T03:24:06;8.40;99.90
11107;DHT22;5607;48.302;14.294;2023-02-21T03:26:56;8.40;99.90
11107;DHT22;5607;48.302;14.294;2023-02-21T03:29:47;8.50;99.90
11107;DHT22;5607;48.302;14.294;2023-02-21T03:32:42;8.40;99.90
11107;DHT22;5607;48.302;14.294;2023-02-21T03:35:32;8.50;99.90
11107;DHT22;5607;48.302;14.294;2023-02-21T03:38:19;8.50;99.90
11107;DHT22;5607;48.302;14.294;2023-02-21T03:41:07;8.50;99.90
11107;DHT22;5607;48.302;14.294;2023-02-21T03:43:57;8.40;99.90
11107;DHT22;5607;48.302;14.294;2023-02-21T03:46:44;8.50;99.90
11107;DHT22;5607;48.302;14.294;2023-02-21T03:49:30;8.50;99.90
11107;DHT22;5607;48.302;14.294;2023-02-21T03:52:17;8.60;99.90
11107;DHT22;5607;48.302;14.294;2023-02-21T03:55:04;8.50;99.90
11107;DHT22;5607;48.302;14.294;2023-02-21T03:57:52;8.50;99.90
11107;DHT22;5607;48.302;14.294;2023-02-21T04:00:39;8.50;99.90
11107;DHT22;5607;48.302;14.294;2023-02-21T04:03:25;8.50;99.90
11107;DHT22;5607;48.302;14.294;2023-02-21T04:06:12;8.50;99.90
11107;DHT22;5607;48.302;14.294;2023-02-21T04:08:58;8.50;99.90
11107;DHT22;5607;48.302;14.294;2023-02-21T04:11:45;8.50;99.90
11107;DHT22;5607;48.302;14.294;2023-02-21T04:14:32;8.50;99.90
11107;DHT22;5607;48.302;14.294;2023-02-21T04:17:18;8.40;99.90
11107;DHT22;5607;48.302;14.294;2023-02-21T04:20:05;8.40;99.90
11107;DHT22;5607;48.302;14.294;2023-02-21T04:22:52;8.40;99.90
11107;DHT22;5607;48.302;14.294;2023-02-21T04:25:38;8.40;99.90
11107;DHT22;5607;48.302;14.294;2023-02-21T04:28:25;8.40;99.90
11107;DHT22;5607;48.302;14.294;2023-02-21T04:31:13;8.40;99.90
11107;DHT22;5607;48.302;14.294;2023-02-21T04:34:01;8.40;99.90
11107;DHT22;5607;48.302;14.294;2023-02-21T04:36:47;8.40;99.90
11107;DHT22;5607;48.302;14.294;2023-02-21T04:39:34;8.40;99.90
11107;DHT22;5607;48.302;14.294;2023-02-21T04:42:21;8.40;99.90
11107;DHT22;5607;48.302;14.294;2023-02-21T04:45:07;8.40;99.90
11107;DHT22;5607;48.302;14.294;2023-02-21T04:47:54;8.30;99.90
11107;DHT22;5607;48.302;14.294;2023-02-21T04:50:40;8.30;99.90
11107;DHT22;5607;48.302;14.294;2023-02-21T04:53:27;8.40;99.90
11107;DHT22;5607;48.302;14.294;2023-02-21T04:56:14;8.30;99.90
11107;DHT22;5607;48.302;14.294;2023-02-21T04:59:04;8.30;99.90
11107;DHT22;5607;48.302;14.294;2023-02-21T05:01:50;8.30;99.90
11107;DHT22;5607;48.302;14.294;2023-02-21T05:04:37;8.40;99.90
11107;DHT22;5607;48.302;14.294;2023-02-21T05:07:24;8.40;99.90
11107;DHT22;5607;48.302;14.294;2023-02-21T05:10:10;8.40;99.90
11107;DHT22;5607;48.302;14.294;2023-02-21T05:12:58;8.40;99.90
11107;DHT22;5607;48.302;14.294;2023-02-21T05:15:45;8.40;99.90
11107;DHT22;5607;48.302;14.294;2023-02-21T05:18:32;8.40;99.90
11107;DHT22;5607;48.302;14.294;2023-02-21T05:21:19;8.40;99.90
11107;DHT22;5607;48.302;14.294;2023-02-21T05:24:06;8.40;99.90
11107;DHT22;5607;48.302;14.294;2023-02-21T05:26:53;8.40;99.90
11107;DHT22;5607;48.302;14.294;2023-02-21T05:29:40;8.40;99.90
11107;DHT22;5607;48.302;14.294;2023-02-21T05:32:37;8.40;99.90
11107;DHT22;5607;48.302;14.294;2023-02-21T05:35:24;8.40;99.90
11107;DHT22;5607;48.302;14.294;2023-02-21T05:38:10;8.40;99.90
11107;DHT22;5607;48.302;14.294;2023-02-21T05:40:57;8.30;99.90
11107;DHT22;5607;48.302;14.294;2023-02-21T05:43:44;8.30;99.90
11107;DHT22;5607;48.302;14.294;2023-02-21T05:46:33;8.30;99.90
11107;DHT22;5607;48.302;14.294;2023-02-21T05:49:20;8.30;99.90
11107;DHT22;5607;48.302;14.294;2023-02-21T05:52:07;8.30;99.90
11107;DHT22;5607;48.302;14.294;2023-02-21T05:54:57;8.30;99.90
11107;DHT22;5607;48.302;14.294;2023-02-21T05:57:44;8.30;99.90
11107;DHT22;5607;48.302;14.294;2023-02-21T06:00:30;8.30;99.90
11107;DHT22;5607;48.302;14.294;2023-02-21T06:03:17;8.20;99.90
11107;DHT22;5607;48.302;14.294;2023-02-21T06:06:04;8.30;99.90
11107;DHT22;5607;48.302;14.294;2023-02-21T06:08:50;8.30;99.90
11107;DHT22;5607;48.302;14.294;2023-02-21T06:11:37;8.20;99.90
11107;DHT22;5607;48.302;14.294;2023-02-21T06:14:25;8.20;99.90
11107;DHT22;5607;48.302;14.294;2023-02-21T06:17:12;8.30;99.90
11107;DHT22;5607;48.302;14.294;2023-02-21T06:19:58;8.10;99.90
11107;DHT22;5607;48.302;14.294;2023-02-21T06:22:45;8.20;99.90
11107;DHT22;5607;48.302;14.294;2023-02-21T06:25:33;8.20;99.90
11107;DHT22;5607;48.302;14.294;2023-02-21T06:28:19;8.30;99.90
11107;DHT22;5607;48.302;14.294;2023-02-21T06:31:06;8.30;99.90
11107;DHT22;5607;48.302;14.294;2023-02-21T06:33:53;8.30;99.90
11107;DHT22;5607;48.302;14.294;2023-02-21T06:36:39;8.20;99.90
11107;DHT22;5607;48.302;14.294;2023-02-21T06:39:26;8.20;99.90
11107;DHT22;5607;48.302;14.294;2023-02-21T06:42:16;8.20;99.90
11107;DHT22;5607;48.302;14.294;2023-02-21T06:45:03;8.20;99.90
11107;DHT22;5607;48.302;14.294;2023-02-21T06:47:51;8.30;99.90
11107;DHT22;5607;48.302;14.294;2023-02-21T06:50:37;8.30;99.90
11107;DHT22;5607;48.302;14.294;2023-02-21T06:53:24;8.30;99.90
11107;DHT22;5607;48.302;14.294;2023-02-21T06:56:10;8.30;99.90
11107;DHT22;5607;48.302;14.294;2023-02-21T06:58:57;8.30;99.90
11107;DHT22;5607;48.302;14.294;2023-02-21T07:01:44;8.40;99.90
11107;DHT22;5607;48.302;14.294;2023-02-21T07:04:31;8.50;99.90
11107;DHT22;5607;48.302;14.294;2023-02-21T07:07:17;8.50;99.90
11107;DHT22;5607;48.302;14.294;2023-02-21T07:10:04;8.50;99.90
11107;DHT22;5607;48.302;14.294;2023-02-21T07:12:51;8.40;99.90
11107;DHT22;5607;48.302;14.294;2023-02-21T07:15:37;8.40;99.90
11107;DHT22;5607;48.302;14.294;2023-02-21T07:18:24;8.50;99.90
11107;DHT22;5607;48.302;14.294;2023-02-21T07:21:11;8.60;99.90
11107;DHT22;5607;48.302;14.294;2023-02-21T07:24:00;8.60;99.90
11107;DHT22;5607;48.302;14.294;2023-02-21T07:26:46;8.70;99.90
11107;DHT22;5607;48.302;14.294;2023-02-21T07:29:33;8.90;99.90
11107;DHT22;5607;48.302;14.294;2023-02-21T07:32:20;8.90;99.90
11107;DHT22;5607;48.302;14.294;2023-02-21T07:35:07;9.00;99.90
11107;DHT22;5607;48.302;14.294;2023-02-21T07:37:54;9.00;99.90
11107;DHT22;5607;48.302;14.294;2023-02-21T07:40:41;9.00;99.90
11107;DHT22;5607;48.302;14.294;2023-02-21T07:43:28;9.10;99.90
11107;DHT22;5607;48.302;14.294;2023-02-21T07:46:16;9.10;99.90
11107;DHT22;5607;48.302;14.294;2023-02-21T07:49:03;9.20;99.90
11107;DHT22;5607;48.302;14.294;2023-02-21T07:51:50;9.20;99.90
11107;DHT22;5607;48.302;14.294;2023-02-21T07:54:36;9.30;99.90
11107;DHT22;5607;48.302;14.294;2023-02-21T07:57:23;9.40;99.90
11107;DHT22;5607;48.302;14.294;2023-02-21T08:00:10;9.50;99.90
11107;DHT22;5607;48.302;14.294;2023-02-21T08:02:57;9.40;99.90
11107;DHT22;5607;48.302;14.294;2023-02-21T08:05:44;9.50;99.90
11107;DHT22;5607;48.302;14.294;2023-02-21T08:08:33;9.50;99.90
11107;DHT22;5607;48.302;14.294;2023-02-21T08:11:20;9.60;99.90
11107;DHT22;5607;48.302;14.294;2023-02-21T08:14:07;9.70;99.90
11107;DHT22;5607;48.302;14.294;2023-02-21T08:16:54;9.80;99.90
11107;DHT22;5607;48.302;14.294;2023-02-21T08:19:40;9.90;99.90
11107;DHT22;5607;48.302;14.294;2023-02-21T08:22:27;10.00;99.90
11107;DHT22;5607;48.302;14.294;2023-02-21T08:25:14;10.20;99.90
11107;DHT22;5607;48.302;14.294;2023-02-21T08:28:01;10.30;99.90
11107;DHT22;5607;48.302;14.294;2023-02-21T08:30:48;10.50;99.90
11107;DHT22;5607;48.302;14.294;2023-02-21T08:33:36;10.60;99.90
11107;DHT22;5607;48.302;14.294;2023-02-21T08:36:29;10.80;99.90
11107;DHT22;5607;48.302;14.294;2023-02-21T08:39:16;10.80;99.90
11107;DHT22;5607;48.302;14.294;2023-02-21T08:42:03;10.80;99.90
11107;DHT22;5607;48.302;14.294;2023-02-21T08:44:50;10.90;99.90
11107;DHT22;5607;48.302;14.294;2023-02-21T08:47:36;11.10;99.90
11107;DHT22;5607;48.302;14.294;2023-02-21T08:50:23;11.20;99.90
11107;DHT22;5607;48.302;14.294;2023-02-21T08:53:12;11.30;99.90
11107;DHT22;5607;48.302;14.294;2023-02-21T08:55:59;11.40;99.90
11107;DHT22;5607;48.302;14.294;2023-02-21T08:58:46;11.50;99.90
11107;DHT22;5607;48.302;14.294;2023-02-21T09:01:34;11.60;99.90
11107;DHT22;5607;48.302;14.294;2023-02-21T09:04:20;11.70;99.90
11107;DHT22;5607;48.302;14.294;2023-02-21T09:07:07;11.90;99.90
11107;DHT22;5607;48.302;14.294;2023-02-21T09:09:54;12.00;99.90
11107;DHT22;5607;48.302;14.294;2023-02-21T09:12:40;12.10;99.90
11107;DHT22;5607;48.302;14.294;2023-02-21T09:15:27;12.30;99.90
11107;DHT22;5607;48.302;14.294;2023-02-21T09:18:13;12.60;99.90
11107;DHT22;5607;48.302;14.294;2023-02-21T09:21:01;12.90;99.90
11107;DHT22;5607;48.302;14.294;2023-02-21T09:23:48;13.10;99.90
11107;DHT22;5607;48.302;14.294;2023-02-21T09:26:38;13.10;99.90
11107;DHT22;5607;48.302;14.294;2023-02-21T09:29:24;13.40;99.90
11107;DHT22;5607;48.302;14.294;2023-02-21T09:32:12;13.40;99.90
11107;DHT22;5607;48.302;14.294;2023-02-21T09:34:59;13.00;99.90
11107;DHT22;5607;48.302;14.294;2023-02-21T09:37:46;13.00;99.90
11107;DHT22;5607;48.302;14.294;2023-02-21T09:40:47;13.00;99.90
11107;DHT22;5607;48.302;14.294;2023-02-21T09:43:39;13.10;99.90
11107;DHT22;5607;48.302;14.294;2023-02-21T09:46:43;12.80;99.90
11107;DHT22;5607;48.302;14.294;2023-02-21T09:49:57;12.70;99.90
11107;DHT22;5607;48.302;14.294;2023-02-21T09:52:46;12.70;99.90
11107;DHT22;5607;48.302;14.294;2023-02-21T09:55:36;12.60;99.90
11107;DHT22;5607;48.302;14.294;2023-02-21T09:58:25;12.70;99.90
11107;DHT22;5607;48.302;14.294;2023-02-21T10:01:59;12.60;99.90
11107;DHT22;5607;48.302;14.294;2023-02-21T10:10:50;12.30;99.90
11107;DHT22;5607;48.302;14.294;2023-02-21T10:19:51;12.60;99.90
11107;DHT22;5607;48.302;14.294;2023-02-21T10:22:42;12.50;99.90
11107;DHT22;5607;48.302;14.294;2023-02-21T10:25:32;12.50;99.90
11107;DHT22;5607;48.302;14.294;2023-02-21T10:28:22;12.70;99.90
11107;DHT22;5607;48.302;14.294;2023-02-21T10:31:14;12.40;99.90
11107;DHT22;5607;48.302;14.294;2023-02-21T10:34:06;12.40;99.90
11107;DHT22;5607;48.302;14.294;2023-02-21T10:37:11;12.80;99.90
11107;DHT22;5607;48.302;14.294;2023-02-21T10:43:26;12.80;99.90
11107;DHT22;5607;48.302;14.294;2023-02-21T10:49:24;13.00;99.90
11107;DHT22;5607;48.302;14.294;2023-02-21T10:52:16;12.80;99.90
11107;DHT22;5607;48.302;14.294;2023-02-21T10:55:12;12.70;99.90
11107;DHT22;5607;48.302;14.294;2023-02-21T10:58:08;12.40;99.90
11107;DHT22;5607;48.302;14.294;2023-02-21T11:04:23;12.40;99.90
11107;DHT22;5607;48.302;14.294;2023-02-21T11:07:22;12.30;99.90
11107;DHT22;5607;48.302;14.294;2023-02-21T11:10:29;12.40;99.90
11107;DHT22;5607;48.302;14.294;2023-02-21T11:13:26;12.60;99.90
11107;DHT22;5607;48.302;14.294;2023-02-21T11:16:17;12.50;99.90
11107;DHT22;5607;48.302;14.294;2023-02-21T11:19:09;12.40;99.90
11107;DHT22;5607;48.302;14.294;2023-02-21T11:21:58;12.30;99.90
11107;DHT22;5607;48.302;14.294;2023-02-21T11:24:50;12.30;99.90
11107;DHT22;5607;48.302;14.294;2023-02-21T11:27:39;12.30;99.90
11107;DHT22;5607;48.302;14.294;2023-02-21T11:30:26;12.30;99.90
11107;DHT22;5607;48.302;14.294;2023-02-21T11:33:13;12.10;99.90
11107;DHT22;5607;48.302;14.294;2023-02-21T11:36:08;12.20;99.90
11107;DHT22;5607;48.302;14.294;2023-02-21T11:39:05;12.30;99.90
11107;DHT22;5607;48.302;14.294;2023-02-21T11:42:23;12.40;99.90
11107;DHT22;5607;48.302;14.294;2023-02-21T11:45:19;12.40;99.90
11107;DHT22;5607;48.302;14.294;2023-02-21T11:48:14;12.50;99.90
11107;DHT22;5607;48.302;14.294;2023-02-21T11:51:05;12.30;99.90
11107;DHT22;5607;48.302;14.294;2023-02-21T11:53:58;12.40;99.90
11107;DHT22;5607;48.302;14.294;2023-02-21T12:03:17;12.90;99.90
11107;DHT22;5607;48.302;14.294;2023-02-21T12:06:10;13.20;99.90
11107;DHT22;5607;48.302;14.294;2023-02-21T12:09:02;13.20;99.90
11107;DHT22;5607;48.302;14.294;2023-02-21T12:30:03;13.70;99.90
11107;DHT22;5607;48.302;14.294;2023-02-21T12:46:33;13.80;99.90
11107;DHT22;5607;48.302;14.294;2023-02-21T12:49:43;13.80;99.90
11107;DHT22;5607;48.302;14.294;2023-02-21T12:52:37;14.00;99.90
11107;DHT22;5607;48.302;14.294;2023-02-21T12:55:36;13.90;99.90
11107;DHT22;5607;48.302;14.294;2023-02-21T12:58:39;13.90;99.90
11107;DHT22;5607;48.302;14.294;2023-02-21T13:01:32;13.90;99.90
11107;DHT22;5607;48.302;14.294;2023-02-21T13:10:18;14.30;99.90
11107;DHT22;5607;48.302;14.294;2023-02-21T13:13:27;14.40;99.90
11107;DHT22;5607;48.302;14.294;2023-02-21T13:16:19;14.50;99.90
11107;DHT22;5607;48.302;14.294;2023-02-21T13:19:08;14.60;99.90
11107;DHT22;5607;48.302;14.294;2023-02-21T13:25:49;14.60;99.90
11107;DHT22;5607;48.302;14.294;2023-02-21T13:28:45;14.40;99.90
11107;DHT22;5607;48.302;14.294;2023-02-21T13:31:38;14.60;99.90
11107;DHT22;5607;48.302;14.294;2023-02-21T13:34:30;14.80;99.90
11107;DHT22;5607;48.302;14.294;2023-02-21T13:37:23;14.80;99.90
11107;DHT22;5607;48.302;14.294;2023-02-21T13:40:23;14.80;99.90
11107;DHT22;5607;48.302;14.294;2023-02-21T13:43:25;14.80;99.90
11107;DHT22;5607;48.302;14.294;2023-02-21T14:00:52;15.20;99.90
11107;DHT22;5607;48.302;14.294;2023-02-21T14:03:39;15.00;99.90
11107;DHT22;5607;48.302;14.294;2023-02-21T14:06:28;15.00;99.90
11107;DHT22;5607;48.302;14.294;2023-02-21T14:09:18;14.70;99.90
11107;DHT22;5607;48.302;14.294;2023-02-21T14:12:04;14.60;99.90
11107;DHT22;5607;48.302;14.294;2023-02-21T14:14:52;14.60;99.90
11107;DHT22;5607;48.302;14.294;2023-02-21T14:17:51;14.70;99.90
11107;DHT22;5607;48.302;14.294;2023-02-21T14:20:39;14.50;99.90
11107;DHT22;5607;48.302;14.294;2023-02-21T14:23:38;14.60;99.90
11107;DHT22;5607;48.302;14.294;2023-02-21T14:32:46;14.30;99.90
11107;DHT22;5607;48.302;14.294;2023-02-21T14:36:03;14.30;99.90
11107;DHT22;5607;48.302;14.294;2023-02-21T14:38:58;14.30;99.90
11107;DHT22;5607;48.302;14.294;2023-02-21T15:03:07;14.20;99.90
11107;DHT22;5607;48.302;14.294;2023-02-21T15:06:04;14.20;99.90
11107;DHT22;5607;48.302;14.294;2023-02-21T15:08:56;14.20;99.90
11107;DHT22;5607;48.302;14.294;2023-02-21T15:11:42;14.20;99.90
11107;DHT22;5607;48.302;14.294;2023-02-21T15:14:32;14.20;99.90
11107;DHT22;5607;48.302;14.294;2023-02-21T15:17:24;14.20;99.90
11107;DHT22;5607;48.302;14.294;2023-02-21T15:20:15;14.10;99.90
11107;DHT22;5607;48.302;14.294;2023-02-21T15:25:55;14.10;99.90
11107;DHT22;5607;48.302;14.294;2023-02-21T15:28:44;14.00;99.90
11107;DHT22;5607;48.302;14.294;2023-02-21T15:31:32;13.90;99.90
11107;DHT22;5607;48.302;14.294;2023-02-21T15:34:21;13.90;99.90
11107;DHT22;5607;48.302;14.294;2023-02-21T15:37:22;13.80;99.90
11107;DHT22;5607;48.302;14.294;2023-02-21T15:40:21;13.90;99.90
11107;DHT22;5607;48.302;14.294;2023-02-21T15:43:13;13.80;99.90
11107;DHT22;5607;48.302;14.294;2023-02-21T15:46:10;13.70;99.90
11107;DHT22;5607;48.302;14.294;2023-02-21T15:49:02;13.70;99.90
11107;DHT22;5607;48.302;14.294;2023-02-21T15:51:49;13.60;99.90
11107;DHT22;5607;48.302;14.294;2023-02-21T15:54:36;13.60;99.90
11107;DHT22;5607;48.302;14.294;2023-02-21T15:57:25;13.60;99.90
11107;DHT22;5607;48.302;14.294;2023-02-21T16:00:25;13.60;99.90
11107;DHT22;5607;48.302;14.294;2023-02-21T16:03:32;13.60;99.90
11107;DHT22;5607;48.302;14.294;2023-02-21T16:06:29;13.50;99.90
11107;DHT22;5607;48.302;14.294;2023-02-21T16:09:23;13.50;99.90
11107;DHT22;5607;48.302;14.294;2023-02-21T16:15:05;13.40;99.90
11107;DHT22;5607;48.302;14.294;2023-02-21T16:18:05;13.30;99.90
11107;DHT22;5607;48.302;14.294;2023-02-21T16:21:04;13.30;99.90
11107;DHT22;5607;48.302;14.294;2023-02-21T16:23:52;13.20;99.90
11107;DHT22;5607;48.302;14.294;2023-02-21T16:26:39;13.20;99.90
11107;DHT22;5607;48.302;14.294;2023-02-21T16:29:27;13.10;99.90
11107;DHT22;5607;48.302;14.294;2023-02-21T16:32:16;13.10;99.90
11107;DHT22;5607;48.302;14.294;2023-02-21T16:35:05;13.00;99.90
11107;DHT22;5607;48.302;14.294;2023-02-21T16:37:52;13.00;99.90
11107;DHT22;5607;48.302;14.294;2023-02-21T16:40:41;13.00;99.90
11107;DHT22;5607;48.302;14.294;2023-02-21T16:43:28;12.90;99.90
11107;DHT22;5607;48.302;14.294;2023-02-21T16:46:15;12.90;99.90
11107;DHT22;5607;48.302;14.294;2023-02-21T16:49:09;12.80;99.90
11107;DHT22;5607;48.302;14.294;2023-02-21T16:51:56;12.80;99.90
11107;DHT22;5607;48.302;14.294;2023-02-21T16:54:42;12.70;99.90
11107;DHT22;5607;48.302;14.294;2023-02-21T16:57:29;12.70;99.90
11107;DHT22;5607;48.302;14.294;2023-02-21T17:00:17;12.60;99.90
11107;DHT22;5607;48.302;14.294;2023-02-21T17:03:06;12.60;99.90
11107;DHT22;5607;48.302;14.294;2023-02-21T17:05:54;12.50;99.90
11107;DHT22;5607;48.302;14.294;2023-02-21T17:08:44;12.50;99.90
11107;DHT22;5607;48.302;14.294;2023-02-21T17:11:30;12.50;99.90
11107;DHT22;5607;48.302;14.294;2023-02-21T17:14:17;12.40;99.90
11107;DHT22;5607;48.302;14.294;2023-02-21T17:17:04;12.40;99.90
11107;DHT22;5607;48.302;14.294;2023-02-21T17:19:51;12.40;99.90
11107;DHT22;5607;48.302;14.294;2023-02-21T17:22:37;12.40;99.90
11107;DHT22;5607;48.302;14.294;2023-02-21T17:25:24;12.30;99.90
11107;DHT22;5607;48.302;14.294;2023-02-21T17:28:11;12.30;99.90
11107;DHT22;5607;48.302;14.294;2023-02-21T17:30:58;12.20;99.90
11107;DHT22;5607;48.302;14.294;2023-02-21T17:33:46;12.20;99.90
11107;DHT22;5607;48.302;14.294;2023-02-21T17:36:33;12.20;99.90
11107;DHT22;5607;48.302;14.294;2023-02-21T17:39:20;12.20;99.90
11107;DHT22;5607;48.302;14.294;2023-02-21T17:42:09;12.20;99.90
11107;DHT22;5607;48.302;14.294;2023-02-21T17:44:55;12.20;99.90
11107;DHT22;5607;48.302;14.294;2023-02-21T17:47:44;12.10;99.90
11107;DHT22;5607;48.302;14.294;2023-02-21T17:50:30;12.10;99.90
11107;DHT22;5607;48.302;14.294;2023-02-21T17:53:17;12.10;99.90
11107;DHT22;5607;48.302;14.294;2023-02-21T17:56:04;12.10;99.90
11107;DHT22;5607;48.302;14.294;2023-02-21T17:58:51;12.00;99.90
11107;DHT22;5607;48.302;14.294;2023-02-21T18:01:37;12.00;99.90
11107;DHT22;5607;48.302;14.294;2023-02-21T18:04:26;12.00;1.00
11107;DHT22;5607;48.302;14.294;2023-02-21T18:07:13;12.00;1.00
11107;DHT22;5607;48.302;14.294;2023-02-21T18:10:00;11.90;1.00
11107;DHT22;5607;48.302;14.294;2023-02-21T18:12:48;11.90;1.00
11107;DHT22;5607;48.302;14.294;2023-02-21T18:15:35;11.80;1.00
11107;DHT22;5607;48.302;14.294;2023-02-21T18:18:22;11.80;1.00
11107;DHT22;5607;48.302;14.294;2023-02-21T18:21:09;11.80;1.00
11107;DHT22;5607;48.302;14.294;2023-02-21T18:23:56;11.70;1.00
11107;DHT22;5607;48.302;14.294;2023-02-21T18:26:43;11.70;1.00
11107;DHT22;5607;48.302;14.294;2023-02-21T18:29:31;11.70;1.00
11107;DHT22;5607;48.302;14.294;2023-02-21T18:32:23;11.70;1.00
11107;DHT22;5607;48.302;14.294;2023-02-21T18:35:10;11.60;1.00
11107;DHT22;5607;48.302;14.294;2023-02-21T18:37:56;11.60;1.00
11107;DHT22;5607;48.302;14.294;2023-02-21T18:40:43;11.50;1.00
11107;DHT22;5607;48.302;14.294;2023-02-21T18:43:30;11.50;1.00
11107;DHT22;5607;48.302;14.294;2023-02-21T18:46:18;11.50;1.00
11107;DHT22;5607;48.302;14.294;2023-02-21T18:49:06;11.40;1.00
11107;DHT22;5607;48.302;14.294;2023-02-21T18:51:53;11.30;1.00
11107;DHT22;5607;48.302;14.294;2023-02-21T18:54:46;11.30;1.00
11107;DHT22;5607;48.302;14.294;2023-02-21T18:57:34;11.20;1.00
11107;DHT22;5607;48.302;14.294;2023-02-21T19:00:21;11.20;1.00
11107;DHT22;5607;48.302;14.294;2023-02-21T19:03:08;11.20;1.00
11107;DHT22;5607;48.302;14.294;2023-02-21T19:05:56;11.20;1.00
11107;DHT22;5607;48.302;14.294;2023-02-21T19:08:43;11.10;1.00
11107;DHT22;5607;48.302;14.294;2023-02-21T19:11:35;11.00;1.00
11107;DHT22;5607;48.302;14.294;2023-02-21T19:14:22;10.90;1.00
11107;DHT22;5607;48.302;14.294;2023-02-21T19:17:09;10.80;1.00
11107;DHT22;5607;48.302;14.294;2023-02-21T19:19:55;10.80;1.00
11107;DHT22;5607;48.302;14.294;2023-02-21T19:22:42;10.80;1.00
11107;DHT22;5607;48.302;14.294;2023-02-21T19:25:28;10.70;1.00
11107;DHT22;5607;48.302;14.294;2023-02-21T19:28:16;10.70;1.00
11107;DHT22;5607;48.302;14.294;2023-02-21T19:31:03;10.70;1.00
11107;DHT22;5607;48.302;14.294;2023-02-21T19:33:49;10.60;1.00
11107;DHT22;5607;48.302;14.294;2023-02-21T19:36:36;10.60;1.00
11107;DHT22;5607;48.302;14.294;2023-02-21T19:39:25;10.60;1.00
11107;DHT22;5607;48.302;14.294;2023-02-21T19:42:12;10.50;1.00
11107;DHT22;5607;48.302;14.294;2023-02-21T19:44:59;10.50;1.00
11107;DHT22;5607;48.302;14.294;2023-02-21T19:47:46;10.50;1.00
11107;DHT22;5607;48.302;14.294;2023-02-21T19:50:34;10.40;1.00
11107;DHT22;5607;48.302;14.294;2023-02-21T19:53:21;10.40;1.00
11107;DHT22;5607;48.302;14.294;2023-02-21T19:56:07;10.40;1.00
11107;DHT22;5607;48.302;14.294;2023-02-21T19:58:54;10.40;1.00
11107;DHT22;5607;48.302;14.294;2023-02-21T20:01:41;10.50;1.00
11107;DHT22;5607;48.302;14.294;2023-02-21T20:04:28;10.40;1.00
11107;DHT22;5607;48.302;14.294;2023-02-21T20:07:15;10.40;1.00
11107;DHT22;5607;48.302;14.294;2023-02-21T20:10:03;10.30;1.00
11107;DHT22;5607;48.302;14.294;2023-02-21T20:12:50;10.10;1.00
11107;DHT22;5607;48.302;14.294;2023-02-21T20:15:38;10.00;1.00
11107;DHT22;5607;48.302;14.294;2023-02-21T20:18:27;9.90;1.00
11107;DHT22;5607;48.302;14.294;2023-02-21T20:21:24;9.80;1.00
11107;DHT22;5607;48.302;14.294;2023-02-21T20:24:13;9.80;1.00
11107;DHT22;5607;48.302;14.294;2023-02-21T20:26:59;9.80;1.00
11107;DHT22;5607;48.302;14.294;2023-02-21T20:29:46;9.80;1.00
11107;DHT22;5607;48.302;14.294;2023-02-21T20:32:34;9.70;1.00
11107;DHT22;5607;48.302;14.294;2023-02-21T20:35:21;9.70;1.00
11107;DHT22;5607;48.302;14.294;2023-02-21T20:38:09;9.70;1.00
11107;DHT22;5607;48.302;14.294;2023-02-21T20:40:58;9.70;1.00
11107;DHT22;5607;48.302;14.294;2023-02-21T20:43:45;9.60;1.00
11107;DHT22;5607;48.302;14.294;2023-02-21T20:46:32;9.60;1.00
11107;DHT22;5607;48.302;14.294;2023-02-21T20:49:20;9.60;1.00
11107;DHT22;5607;48.302;14.294;2023-02-21T20:52:06;9.60;1.00
11107;DHT22;5607;48.302;14.294;2023-02-21T20:54:53;9.60;1.00
11107;DHT22;5607;48.302;14.294;2023-02-21T20:57:40;9.70;1.00